createdAt,value
2022-12-09T00:01:14.877Z,5.57
2022-12-09T00:03:42.766Z,5.90
2022-12-09T00:06:21.492Z,5.67
2022-12-09T00:08:49.167Z,6.30
2022-12-09T00:11:16.580Z,6.33
2022-12-09T00:13:43.608Z,6.13
2022-12-09T00:16:13.341Z,5.80
2022-12-09T00:18:40.755Z,5.97
2022-12-09T00:21:24.279Z,6.30
2022-12-09T00:23:52.660Z,6.50
2022-12-09T00:26:21.145Z,6.30
2022-12-09T00:28:49.578Z,6.33
2022-12-09T00:31:19.417Z,6.10
2022-12-09T00:33:46.696Z,6.20
2022-12-09T00:36:17.526Z,6.20
2022-12-09T00:38:44.746Z,6.00
2022-12-09T00:41:13.605Z,6.43
2022-12-09T00:43:41.746Z,6.37
2022-12-09T00:46:08.846Z,6.07
2022-12-09T00:48:37.298Z,5.87
2022-12-09T00:51:06.709Z,6.00
2022-12-09T00:53:33.853Z,5.70
2022-12-09T00:56:01.264Z,6.00
2022-12-09T00:58:28.619Z,5.90
2022-12-09T01:00:55.883Z,6.30
2022-12-09T01:03:23.084Z,6.20
2022-12-09T01:05:50.524Z,6.73
2022-12-09T01:08:17.581Z,6.60
2022-12-09T01:10:45.906Z,6.57
2022-12-09T01:13:15.011Z,7.03
2022-12-09T01:15:42.174Z,7.23
2022-12-09T01:18:10.182Z,7.53
2022-12-09T01:20:36.979Z,7.20
2022-12-09T01:23:04.039Z,6.70
2022-12-09T01:25:30.907Z,6.83
2022-12-09T01:27:58.596Z,7.17
2022-12-09T01:30:25.898Z,7.40
2022-12-09T01:32:53.186Z,7.40
2022-12-09T01:35:20.673Z,6.83
2022-12-09T01:37:47.575Z,6.53
2022-12-09T01:40:17.921Z,6.57
2022-12-09T01:42:45.521Z,6.50
2022-12-09T01:45:30.541Z,6.50
2022-12-09T01:48:11.176Z,6.83
2022-12-09T01:50:55.515Z,7.00
2022-12-09T01:53:27.397Z,6.93
2022-12-09T01:55:57.590Z,7.03
2022-12-09T01:58:25.215Z,6.77
2022-12-09T02:00:52.667Z,6.40
2022-12-09T02:03:21.589Z,7.10
2022-12-09T02:05:49.199Z,6.70
2022-12-09T02:08:18.714Z,6.50
2022-12-09T02:11:12.575Z,6.20
2022-12-09T02:13:49.081Z,6.80
2022-12-09T02:16:21.970Z,6.83
2022-12-09T02:19:06.978Z,6.67
2022-12-09T02:21:55.183Z,6.87
2022-12-09T02:24:25.282Z,7.13
2022-12-09T02:27:14.637Z,6.77
2022-12-09T02:30:15.730Z,7.30
2022-12-09T02:33:07.111Z,7.60
2022-12-09T02:36:09.390Z,7.40
2022-12-09T02:38:40.989Z,7.73
2022-12-09T02:41:28.713Z,8.20
2022-12-09T02:44:01.548Z,7.63
2022-12-09T02:46:33.649Z,7.80
2022-12-09T02:49:01.084Z,7.80
2022-12-09T02:51:32.211Z,7.90
2022-12-09T02:54:18.255Z,7.80
2022-12-09T02:56:57.847Z,7.53
2022-12-09T02:59:27.807Z,7.47
2022-12-09T03:02:01.808Z,7.90
2022-12-09T03:04:31.328Z,7.23
2022-12-09T03:07:18.930Z,6.80
2022-12-09T03:09:51.046Z,7.47
2022-12-09T03:12:20.200Z,7.10
2022-12-09T03:14:51.502Z,7.20
2022-12-09T03:17:28.816Z,7.27
2022-12-09T03:20:01.018Z,6.87
2022-12-09T03:22:31.389Z,6.87
2022-12-09T03:25:04.988Z,6.47
2022-12-09T03:27:46.578Z,6.27
2022-12-09T03:30:15.056Z,6.73
2022-12-09T03:32:44.627Z,6.80
2022-12-09T03:35:16.548Z,6.40
2022-12-09T03:37:44.896Z,6.33
2022-12-09T03:40:17.249Z,6.23
2022-12-09T03:42:51.335Z,6.17
2022-12-09T03:45:19.739Z,6.17
2022-12-09T03:47:47.525Z,6.07
2022-12-09T03:50:15.046Z,6.43
2022-12-09T03:52:57.202Z,6.80
2022-12-09T03:55:40.187Z,6.47
2022-12-09T03:58:08.499Z,7.00
2022-12-09T04:00:38.089Z,6.67
2022-12-09T04:03:06.909Z,7.20
2022-12-09T04:05:33.884Z,7.37
2022-12-09T04:08:01.369Z,7.33
2022-12-09T04:10:28.324Z,7.87
2022-12-09T04:12:55.096Z,7.37
2022-12-09T04:15:22.135Z,7.60
2022-12-09T04:17:49.203Z,7.53
2022-12-09T04:20:16.288Z,7.63
2022-12-09T04:22:43.336Z,7.70
2022-12-09T04:25:10.556Z,7.73
2022-12-09T04:27:37.617Z,7.30
2022-12-09T04:30:05.645Z,7.53
2022-12-09T04:32:33.785Z,8.20
2022-12-09T04:35:00.847Z,7.17
2022-12-09T04:37:27.730Z,7.43
2022-12-09T04:39:54.768Z,7.63
2022-12-09T04:42:21.855Z,7.63
2022-12-09T04:44:49.024Z,7.37
2022-12-09T04:47:16.088Z,7.97
2022-12-09T04:49:43.082Z,7.23
2022-12-09T04:52:09.872Z,7.70
2022-12-09T04:54:38.598Z,7.33
2022-12-09T04:57:05.429Z,8.13
2022-12-09T04:59:32.549Z,8.17
2022-12-09T05:01:59.526Z,8.30
2022-12-09T05:04:27.180Z,8.40
2022-12-09T05:06:54.351Z,9.50
2022-12-09T05:09:21.285Z,10.17
2022-12-09T05:11:48.643Z,8.83
2022-12-09T05:14:15.872Z,9.73
2022-12-09T05:16:42.959Z,10.30
2022-12-09T05:19:11.207Z,9.93
2022-12-09T05:21:38.499Z,8.93
2022-12-09T05:24:06.221Z,9.33
2022-12-09T05:26:33.398Z,9.80
2022-12-09T05:29:00.747Z,9.13
2022-12-09T05:31:27.799Z,9.57
2022-12-09T05:33:55.551Z,8.90
2022-12-09T05:36:25.768Z,9.00
2022-12-09T05:38:54.196Z,9.27
2022-12-09T05:41:22.934Z,9.47
2022-12-09T05:43:50.589Z,8.60
2022-12-09T05:46:18.170Z,8.27
2022-12-09T05:48:45.311Z,8.43
2022-12-09T05:51:32.953Z,8.07
2022-12-09T05:54:05.480Z,8.27
2022-12-09T05:56:33.508Z,8.67
2022-12-09T05:59:00.813Z,8.73
2022-12-09T06:01:28.089Z,9.17
2022-12-09T06:03:56.361Z,9.57
2022-12-09T06:06:27.690Z,9.50
2022-12-09T06:08:57.189Z,9.30
2022-12-09T06:11:24.855Z,10.03
2022-12-09T06:13:52.518Z,10.03
2022-12-09T06:16:21.605Z,10.43
2022-12-09T06:18:49.412Z,10.77
2022-12-09T06:21:18.428Z,11.43
2022-12-09T06:23:45.637Z,11.47
2022-12-09T06:26:30.831Z,11.57
2022-12-09T06:28:58.464Z,11.97
2022-12-09T06:31:26.011Z,11.80
2022-12-09T06:33:56.001Z,12.63
2022-12-09T06:36:24.999Z,12.70
2022-12-09T06:38:52.169Z,11.67
2022-12-09T06:41:19.447Z,12.10
2022-12-09T06:43:46.781Z,11.87
2022-12-09T06:46:19.560Z,12.27
2022-12-09T06:48:47.372Z,12.87
2022-12-09T06:51:15.806Z,14.07
2022-12-09T06:53:42.985Z,14.47
2022-12-09T06:56:13.210Z,16.40
2022-12-09T06:58:45.138Z,15.80
2022-12-09T07:01:18.412Z,15.40
2022-12-09T07:03:50.777Z,16.20
2022-12-09T07:06:21.097Z,15.00
2022-12-09T07:08:48.596Z,17.60
2022-12-09T07:11:15.619Z,16.37
2022-12-09T07:13:43.077Z,16.97
2022-12-09T07:16:10.299Z,14.90
2022-12-09T07:18:37.420Z,15.47
2022-12-09T07:21:12.804Z,17.13
2022-12-09T07:23:40.322Z,17.20
2022-12-09T07:26:07.546Z,18.33
2022-12-09T07:28:36.456Z,17.87
2022-12-09T07:31:03.852Z,16.90
2022-12-09T07:33:31.169Z,16.03
2022-12-09T07:35:59.425Z,16.03
2022-12-09T07:38:27.040Z,16.40
2022-12-09T07:40:54.207Z,15.47
2022-12-09T07:43:21.262Z,14.97
2022-12-09T07:45:49.439Z,15.93
2022-12-09T07:48:16.971Z,15.77
2022-12-09T07:50:44.150Z,15.80
2022-12-09T07:53:11.164Z,15.43
2022-12-09T07:55:38.108Z,14.67
2022-12-09T07:58:05.103Z,15.57
2022-12-09T08:00:32.151Z,14.27
2022-12-09T08:02:59.340Z,15.43
2022-12-09T08:05:27.549Z,15.97
2022-12-09T08:07:54.870Z,14.30
2022-12-09T08:10:22.144Z,14.93
2022-12-09T08:12:49.383Z,14.97
2022-12-09T08:15:19.499Z,15.20
2022-12-09T08:17:46.562Z,15.97
2022-12-09T08:20:14.164Z,15.23
2022-12-09T08:22:42.023Z,15.20
2022-12-09T08:25:09.945Z,14.30
2022-12-09T08:27:37.370Z,14.20
2022-12-09T08:30:05.679Z,13.90
2022-12-09T08:32:33.449Z,14.57
2022-12-09T08:35:00.917Z,14.57
2022-12-09T08:37:27.955Z,14.70
2022-12-09T08:39:55.219Z,15.00
2022-12-09T08:42:22.469Z,14.17
2022-12-09T08:44:52.519Z,14.07
2022-12-09T08:47:21.735Z,14.27
2022-12-09T08:49:49.126Z,14.70
2022-12-09T08:52:16.328Z,14.93
2022-12-09T08:54:43.222Z,14.50
2022-12-09T08:57:10.098Z,15.00
2022-12-09T08:59:43.488Z,14.50
2022-12-09T09:02:12.615Z,16.57
2022-12-09T09:04:40.123Z,14.80
2022-12-09T09:07:07.390Z,14.70
2022-12-09T09:09:34.785Z,14.33
2022-12-09T09:12:01.964Z,14.27
2022-12-09T09:14:29.276Z,14.17
2022-12-09T09:16:56.270Z,15.20
2022-12-09T09:19:28.070Z,15.37
2022-12-09T09:21:56.153Z,15.40
2022-12-09T09:24:25.401Z,14.30
2022-12-09T09:26:53.957Z,15.97
2022-12-09T09:29:23.579Z,15.00
2022-12-09T09:31:54.530Z,16.23
2022-12-09T09:34:22.332Z,15.67
2022-12-09T09:36:49.816Z,15.47
2022-12-09T09:39:17.502Z,15.60
2022-12-09T09:41:53.596Z,15.33
2022-12-09T09:44:26.633Z,16.07
2022-12-09T09:46:55.984Z,16.17
2022-12-09T09:49:38.563Z,16.53
2022-12-09T09:52:12.204Z,16.57
2022-12-09T09:54:39.384Z,17.27
2022-12-09T09:57:24.152Z,17.47
2022-12-09T10:00:08.385Z,17.90
2022-12-09T10:03:02.550Z,17.10
2022-12-09T10:05:35.869Z,16.50
2022-12-09T10:08:40.710Z,16.93
2022-12-09T10:11:42.232Z,16.73
2022-12-09T10:14:28.487Z,16.97
2022-12-09T10:17:18.612Z,18.10
2022-12-09T10:19:50.386Z,17.03
2022-12-09T10:22:23.303Z,16.17
2022-12-09T10:24:56.321Z,17.60
2022-12-09T10:27:29.238Z,17.43
2022-12-09T10:30:00.852Z,17.70
2022-12-09T10:32:34.583Z,17.00
2022-12-09T10:35:12.354Z,17.67
2022-12-09T10:37:39.575Z,17.73
2022-12-09T10:40:16.765Z,17.00
2022-12-09T10:43:16.769Z,17.37
2022-12-09T10:48:47.546Z,18.73
2022-12-09T10:51:22.919Z,17.97
2022-12-09T10:53:54.996Z,17.33
2022-12-09T10:56:27.439Z,16.97
2022-12-09T10:59:19.483Z,17.73
2022-12-09T11:01:58.662Z,17.23
2022-12-09T11:04:32.009Z,18.07
2022-12-09T11:07:20.152Z,18.60
2022-12-09T11:09:56.804Z,17.33
2022-12-09T11:12:29.163Z,17.47
2022-12-09T11:15:02.135Z,18.10
2022-12-09T11:17:36.029Z,18.23
2022-12-09T11:20:06.578Z,18.87
2022-12-09T11:22:41.095Z,18.83
2022-12-09T11:25:28.786Z,19.13
2022-12-09T11:28:17.591Z,18.90
2022-12-09T11:33:55.506Z,20.30
2022-12-09T11:36:29.857Z,20.07
2022-12-09T11:39:28.414Z,20.87
2022-12-09T11:42:18.494Z,21.90
2022-12-09T11:45:06.886Z,21.73
2022-12-09T11:48:13.872Z,20.77
2022-12-09T11:50:33.390Z,23.00
2022-12-09T11:53:11.365Z,22.20
2022-12-09T11:55:43.166Z,22.20
2022-12-09T11:58:17.534Z,22.60
2022-12-09T12:00:51.657Z,21.83
2022-12-09T12:03:18.467Z,21.80
2022-12-09T12:05:52.113Z,23.10
2022-12-09T12:08:25.059Z,23.27
2022-12-09T12:10:56.460Z,21.33
2022-12-09T12:13:34.694Z,24.10
2022-12-09T12:16:32.475Z,25.17
2022-12-09T12:19:19.963Z,22.30
2022-12-09T12:22:14.353Z,23.33
2022-12-09T12:25:00.303Z,24.60
2022-12-09T12:27:45.955Z,23.20
2022-12-09T12:30:16.501Z,24.90
2022-12-09T12:33:59.720Z,24.40
2022-12-09T12:36:23.046Z,24.40
2022-12-09T12:39:10.987Z,24.53
2022-12-09T12:41:56.028Z,24.23
2022-12-09T12:44:50.369Z,23.80
2022-12-09T12:47:33.156Z,24.10
2022-12-09T12:50:26.274Z,25.77
2022-12-09T12:53:21.596Z,24.73
2022-12-09T12:56:10.722Z,25.07
2022-12-09T12:58:52.544Z,27.10
2022-12-09T13:01:31.629Z,27.13
2022-12-09T13:04:22.610Z,27.33
2022-12-09T13:07:05.567Z,28.20
2022-12-09T13:10:09.048Z,27.03
2022-12-09T13:13:01.540Z,27.30
2022-12-09T13:15:32.362Z,26.47
2022-12-09T13:18:36.001Z,25.37
2022-12-09T13:21:05.158Z,25.93
2022-12-09T13:24:15.911Z,26.23
2022-12-09T13:27:01.148Z,25.67
2022-12-09T13:29:39.861Z,26.53
2022-12-09T13:32:42.012Z,25.37
2022-12-09T13:35:22.576Z,26.10
2022-12-09T13:37:52.145Z,26.43
2022-12-09T13:40:24.716Z,25.97
2022-12-09T13:43:16.619Z,25.60
2022-12-09T13:45:43.427Z,25.13
2022-12-09T13:48:17.018Z,25.30
2022-12-09T13:50:57.368Z,24.37
2022-12-09T13:54:04.193Z,25.83
2022-12-09T13:56:36.612Z,26.40
2022-12-09T13:59:25.062Z,29.73
2022-12-09T14:01:59.626Z,28.60
2022-12-09T14:04:36.057Z,29.63
2022-12-09T14:07:18.818Z,28.47
2022-12-09T14:09:50.589Z,28.67
2022-12-09T14:12:26.229Z,27.07
2022-12-09T14:14:55.238Z,25.90
2022-12-09T14:17:31.013Z,26.00
2022-12-09T14:20:20.373Z,24.60
2022-12-09T14:23:15.416Z,24.37
2022-12-09T14:25:57.628Z,26.90
2022-12-09T14:28:36.506Z,25.20
2022-12-09T14:31:08.716Z,25.37
2022-12-09T14:33:37.591Z,26.50
2022-12-09T14:36:24.067Z,25.00
2022-12-09T14:42:02.673Z,23.73
2022-12-09T14:44:55.251Z,22.70
2022-12-09T14:47:29.775Z,21.37
2022-12-09T14:50:07.076Z,22.57
2022-12-09T14:52:34.472Z,21.77
2022-12-09T14:55:14.202Z,23.07
2022-12-09T14:57:45.740Z,22.27
2022-12-09T15:00:45.096Z,21.00
2022-12-09T15:03:45.488Z,21.47
2022-12-09T15:06:18.210Z,22.37
2022-12-09T15:08:45.171Z,21.33
2022-12-09T15:11:18.435Z,21.43
2022-12-09T15:13:48.061Z,21.33
2022-12-09T15:16:24.931Z,20.63
2022-12-09T15:18:53.354Z,20.60
2022-12-09T15:21:28.628Z,20.10
2022-12-09T15:23:56.320Z,20.00
2022-12-09T15:26:29.425Z,19.47
2022-12-09T15:28:57.512Z,20.27
2022-12-09T15:31:27.067Z,19.43
2022-12-09T15:34:00.188Z,19.50
2022-12-09T15:36:35.300Z,18.30
2022-12-09T15:39:08.040Z,18.90
2022-12-09T15:42:07.097Z,18.33
2022-12-09T15:44:49.385Z,20.13
2022-12-09T15:47:19.254Z,18.50
2022-12-09T15:49:55.094Z,19.63
2022-12-09T15:52:25.424Z,18.73
2022-12-09T15:54:53.026Z,18.93
2022-12-09T15:57:22.608Z,18.87
2022-12-09T15:59:57.158Z,18.93
2022-12-09T16:02:30.440Z,20.70
2022-12-09T16:05:04.176Z,20.07
2022-12-09T16:07:33.786Z,21.77
2022-12-09T16:10:01.554Z,18.90
2022-12-09T16:12:30.282Z,20.33
2022-12-09T16:14:57.090Z,20.10
2022-12-09T16:17:30.226Z,20.03
2022-12-09T16:19:57.305Z,19.77
2022-12-09T16:22:29.960Z,18.97
2022-12-09T16:25:14.710Z,20.60
2022-12-09T16:27:48.394Z,23.10
2022-12-09T16:30:23.898Z,21.00
2022-12-09T16:32:55.926Z,19.03
2022-12-09T16:35:26.380Z,18.27
2022-12-09T16:37:56.506Z,18.93
2022-12-09T16:40:26.512Z,17.43
2022-12-09T16:43:15.352Z,18.67
2022-12-09T16:45:46.526Z,18.17
2022-12-09T16:48:13.862Z,19.20
2022-12-09T16:50:49.427Z,18.57
2022-12-09T16:53:22.172Z,20.47
2022-12-09T16:55:51.800Z,25.10
2022-12-09T16:58:19.303Z,23.07
2022-12-09T17:00:46.861Z,19.57
2022-12-09T17:03:33.671Z,19.30
2022-12-09T17:06:01.380Z,18.00
2022-12-09T17:08:28.250Z,17.43
2022-12-09T17:10:55.082Z,18.37
2022-12-09T17:13:21.941Z,18.03
2022-12-09T17:15:48.860Z,18.40
2022-12-09T17:18:15.736Z,17.57
2022-12-09T17:20:42.599Z,16.83
2022-12-09T17:23:09.563Z,16.17
2022-12-09T17:25:36.391Z,16.10
2022-12-09T17:28:05.857Z,17.33
2022-12-09T17:30:37.817Z,16.10
2022-12-09T17:33:04.613Z,16.47
2022-12-09T17:35:33.852Z,16.07
2022-12-09T17:38:02.283Z,15.80
2022-12-09T17:40:29.171Z,15.93
2022-12-09T17:42:55.981Z,17.20
2022-12-09T17:45:22.814Z,16.93
2022-12-09T17:47:50.117Z,16.83
2022-12-09T17:50:16.948Z,16.57
2022-12-09T17:52:43.790Z,16.07
2022-12-09T17:55:10.741Z,14.50
2022-12-09T17:57:37.958Z,14.60
2022-12-09T18:00:06.628Z,15.40
2022-12-09T18:02:38.983Z,15.90
2022-12-09T18:05:06.235Z,15.40
2022-12-09T18:07:33.179Z,14.10
2022-12-09T18:10:00.103Z,13.93
2022-12-09T18:12:27.025Z,15.50
2022-12-09T18:14:53.848Z,13.97
2022-12-09T18:17:20.600Z,14.53
2022-12-09T18:19:47.477Z,14.47
2022-12-09T18:22:14.484Z,15.50
2022-12-09T18:24:41.388Z,15.33
2022-12-09T18:27:08.214Z,13.70
2022-12-09T18:29:35.087Z,13.37
2022-12-09T18:32:02.306Z,13.80
2022-12-09T18:34:29.490Z,13.70
2022-12-09T18:36:56.289Z,12.93
2022-12-09T18:39:23.088Z,13.50
2022-12-09T18:41:49.930Z,13.30
2022-12-09T18:44:16.773Z,13.60
2022-12-09T18:46:46.450Z,12.97
2022-12-09T18:49:20.095Z,16.23
2022-12-09T18:51:48.214Z,17.33
2022-12-09T18:54:18.369Z,18.53
2022-12-09T18:56:45.453Z,18.33
2022-12-09T18:59:12.364Z,18.73
2022-12-09T19:01:41.808Z,17.70
2022-12-09T19:04:29.564Z,16.03
2022-12-09T19:06:58.804Z,17.50
2022-12-09T19:09:34.644Z,16.20
2022-12-09T19:12:23.090Z,15.10
2022-12-09T19:14:50.084Z,15.27
2022-12-09T19:17:18.750Z,14.47
2022-12-09T19:19:47.397Z,14.50
2022-12-09T19:22:14.769Z,14.23
2022-12-09T19:24:43.424Z,14.13
2022-12-09T19:27:10.458Z,14.10
2022-12-09T19:29:37.496Z,15.13
2022-12-09T19:32:10.376Z,13.93
2022-12-09T19:34:50.756Z,13.30
2022-12-09T19:37:17.813Z,13.70
2022-12-09T19:39:46.578Z,14.63
2022-12-09T19:42:13.454Z,14.17
2022-12-09T19:47:27.439Z,14.00
2022-12-09T19:49:54.257Z,13.50
2022-12-09T19:52:21.034Z,13.47
2022-12-09T19:54:47.849Z,13.83
2022-12-09T19:57:14.898Z,13.83
2022-12-09T19:59:41.695Z,13.80
2022-12-09T20:02:12.016Z,14.00
2022-12-09T20:04:48.788Z,14.20
2022-12-09T20:07:16.874Z,14.33
2022-12-09T20:09:43.744Z,16.10
2022-12-09T20:12:10.680Z,17.03
2022-12-09T20:14:39.169Z,17.43
2022-12-09T20:17:06.025Z,25.27
2022-12-09T20:19:32.882Z,29.07
2022-12-09T20:21:59.718Z,37.83
2022-12-09T20:24:26.861Z,45.20
2022-12-09T20:26:55.063Z,47.47
2022-12-09T20:29:21.901Z,45.03
2022-12-09T20:31:48.692Z,41.70
2022-12-09T20:34:16.537Z,39.80
2022-12-09T20:36:44.809Z,40.90
2022-12-09T20:39:17.923Z,38.83
2022-12-09T20:41:45.706Z,34.87
2022-12-09T20:44:14.155Z,30.67
2022-12-09T20:46:44.725Z,26.03
2022-12-09T20:49:11.558Z,25.57
2022-12-09T20:51:40.394Z,22.13
2022-12-09T20:54:08.405Z,22.70
2022-12-09T20:56:35.671Z,22.83
2022-12-09T20:59:03.073Z,25.07
2022-12-09T21:01:32.835Z,22.77
2022-12-09T21:04:01.457Z,22.03
2022-12-09T21:06:31.016Z,21.87
2022-12-09T21:09:12.359Z,19.63
2022-12-09T21:11:39.585Z,20.43
2022-12-09T21:14:07.647Z,18.73
2022-12-09T21:16:38.970Z,17.93
2022-12-09T21:19:10.005Z,18.67
2022-12-09T21:21:40.396Z,18.20
2022-12-09T21:24:08.085Z,17.73
2022-12-09T21:26:34.905Z,18.40
2022-12-09T21:29:02.234Z,18.30
2022-12-09T21:31:32.205Z,17.53
2022-12-09T21:34:01.882Z,18.13
2022-12-09T21:36:34.616Z,17.07
2022-12-09T21:39:02.241Z,16.20
2022-12-09T21:41:31.453Z,16.83
2022-12-09T21:43:58.606Z,16.50
2022-12-09T21:46:28.780Z,15.73
2022-12-09T21:49:01.775Z,15.87
2022-12-09T21:51:31.477Z,16.47
2022-12-09T21:53:58.272Z,15.77
2022-12-09T21:56:27.049Z,15.43
2022-12-09T21:58:56.357Z,15.83
2022-12-09T22:01:26.138Z,15.20
2022-12-09T22:03:54.317Z,16.10
2022-12-09T22:06:21.801Z,16.13
2022-12-09T22:08:48.765Z,16.27
2022-12-09T22:11:19.481Z,15.00
2022-12-09T22:13:46.506Z,14.77
2022-12-09T22:16:19.490Z,14.63
2022-12-09T22:18:46.350Z,14.93
2022-12-09T22:21:24.836Z,15.37
2022-12-09T22:23:54.291Z,15.10
2022-12-09T22:26:21.888Z,15.73
2022-12-09T22:28:48.807Z,15.77
2022-12-09T22:31:21.516Z,16.60
2022-12-09T22:33:49.884Z,15.60
2022-12-09T22:36:17.178Z,14.57
2022-12-09T22:38:44.472Z,15.53
2022-12-09T22:41:17.716Z,16.13
2022-12-09T22:43:44.836Z,16.27
2022-12-09T22:46:33.860Z,17.90
2022-12-09T22:49:04.666Z,16.93
2022-12-09T22:51:34.126Z,17.43
2022-12-09T22:54:04.247Z,17.37
2022-12-09T22:56:31.342Z,17.97
2022-12-09T22:58:59.665Z,16.80
2022-12-09T23:01:32.906Z,17.63
2022-12-09T23:04:01.022Z,16.77
2022-12-09T23:06:28.954Z,16.63
2022-12-09T23:08:56.045Z,18.30
2022-12-09T23:11:25.199Z,17.97
2022-12-09T23:13:52.925Z,17.00
2022-12-09T23:16:23.424Z,18.60
2022-12-09T23:18:51.276Z,17.40
2022-12-09T23:21:28.170Z,17.53
2022-12-09T23:23:58.421Z,17.30
2022-12-09T23:26:27.316Z,17.63
2022-12-09T23:28:57.899Z,18.03
2022-12-09T23:31:30.218Z,18.47
2022-12-09T23:33:57.560Z,18.37
2022-12-09T23:36:31.322Z,18.10
2022-12-09T23:38:58.744Z,17.53
2022-12-09T23:41:26.142Z,18.27
2022-12-09T23:43:53.710Z,18.17
2022-12-09T23:46:22.612Z,18.70
2022-12-09T23:48:50.527Z,17.20
2022-12-09T23:51:20.411Z,18.40
2022-12-09T23:53:49.261Z,18.03
2022-12-09T23:56:19.630Z,17.87
2022-12-09T23:58:47.392Z,17.67
